| time (UTC) | temp F | wind direction | speed knots | gust knots | rain 1hr in | rain 24hr in | rain mn in | humidity % | barometer mb |
| 20260502163628 | 60 | 192 | 5.2 | 8.7 | 0.00 | 0.00 | 0.00 | 29 | 1022.8 |
| 20260502162636 | 60 | 97 | 4.3 | 8.7 | 0.00 | 0.00 | 0.00 | 28 | 1023.0 |
| 20260502161626 | 59 | 77 | 4.3 | 9.6 | 0.00 | 0.00 | 0.00 | 29 | 1023.0 |
| 20260502160615 | 58 | 167 | 6.1 | 8.7 | 0.00 | 0.00 | 0.00 | 27 | 1023.0 |
| 20260502151632 | 54 | 115 | 5.2 | 7.8 | 0.00 | 0.00 | 0.00 | 35 | 1023.2 |
| 20260502150617 | 53 | 161 | 5.2 | 8.7 | 0.00 | 0.00 | 0.00 | 35 | 1022.9 |
| 20260502130617 | 43 | 189 | 3.5 | 4.3 | 0.00 | 0.00 | 0.00 | 44 | 1022.5 |
| 20260502123617 | 43 | 181 | 0.0 | 1.7 | 0.00 | 0.00 | 0.00 | 45 | 1022.4 |
| 20260502122626 | 42 | 181 | 0.9 | 1.7 | 0.00 | 0.00 | 0.00 | 43 | 1022.4 |
| 20260502121615 | 42 | 153 | 0.0 | 0.0 | 0.00 | 0.00 | 0.00 | 44 | 1022.5 |
| 20260502120627 | 42 | 149 | 0.0 | 3.5 | 0.00 | 0.00 | 0.00 | 43 | 1022.4 |
| 20260502115629 | 42 | 153 | 0.0 | 1.7 | 0.00 | 0.00 | 0.00 | 45 | 1022.4 |
| 20260502114620 | 42 | 96 | 0.0 | 0.0 | 0.00 | 0.00 | 0.00 | 44 | 1022.4 |
| 20260502113648 | 43 | 88 | 0.0 | 0.0 | 0.00 | 0.00 | 0.00 | 44 | 1022.3 |
| 20260502112619 | 43 | 96 | 0.0 | 0.0 | 0.00 | 0.00 | 0.00 | 44 | 1022.4 |
| 20260502111627 | 43 | 57 | 0.0 | 1.7 | 0.00 | 0.00 | 0.00 | 44 | 1022.4 |
| 20260502110637 | 42 | 56 | 1.7 | 2.6 | 0.00 | 0.00 | 0.00 | 44 | 1022.4 |
| 20260502105616 | 42 | 40 | 1.7 | 3.5 | 0.00 | 0.00 | 0.00 | 47 | 1022.4 |
| 20260502104624 | 43 | 22 | 1.7 | 3.5 | 0.00 | 0.00 | 0.00 | 44 | 1022.4 |
| 20260502103616 | 43 | 40 | 2.6 | 4.3 | 0.00 | 0.00 | 0.00 | 43 | 1022.5 |
| 20260502102625 | 43 | 48 | 2.6 | 4.3 | 0.00 | 0.00 | 0.00 | 44 | 1022.6 |
| 20260502101653 | 44 | 21 | 2.6 | 3.5 | 0.00 | 0.00 | 0.00 | 46 | 1022.4 |
| 20260502100620 | 44 | 38 | 1.7 | 2.6 | 0.00 | 0.00 | 0.00 | 41 | 1022.4 |
| 20260502090630 | 44 | 49 | 0.0 | 0.9 | 0.00 | 0.00 | 0.00 | 45 | 1022.3 |
| 20260502070626 | 46 | 135 | 0.0 | 0.0 | 0.00 | 0.00 | 0.00 | 45 | 1022.6 |
| 20260502065645 | 47 | 144 | 0.0 | 0.9 | 0.00 | 0.00 | 0.00 | 42 | 1022.7 |
| 20260502064613 | 47 | 142 | 0.0 | 1.7 | 0.00 | 0.00 | 0.00 | 44 | 1022.6 |
| 20260502063626 | 46 | 181 | 1.7 | 2.6 | 0.00 | 0.00 | 0.00 | 44 | 1022.5 |
| 20260502062613 | 46 | 145 | 0.9 | 2.6 | 0.00 | 0.00 | 0.00 | 45 | 1022.6 |
| 20260502061623 | 46 | 49 | 0.9 | 1.7 | 0.00 | 0.00 | 0.00 | 44 | 1022.5 |
| 20260502060616 | 46 | 48 | 0.9 | 1.7 | 0.00 | 0.00 | 0.00 | 45 | 1022.4 |
| 20260502055650 | 46 | 48 | 0.9 | 1.7 | 0.00 | 0.00 | 0.00 | 45 | 1022.5 |
| 20260502054621 | 46 | 23 | 1.7 | 1.7 | 0.00 | 0.00 | 0.00 | 46 | 1022.5 |
| 20260502053629 | 47 | 98 | 0.0 | 0.9 | 0.00 | 0.00 | 0.00 | 45 | 1022.3 |
| 20260502052618 | 48 | 98 | 0.9 | 1.7 | 0.00 | 0.00 | 0.00 | 44 | 1022.4 |
| 20260502051647 | 48 | 153 | 0.0 | 1.7 | 0.00 | 0.00 | 0.00 | 43 | 1022.4 |
| 20260502050638 | 47 | 49 | 0.0 | 0.9 | 0.00 | 0.00 | 0.00 | 44 | 1022.4 |
| 20260502045636 | 47 | 38 | 0.0 | 0.0 | 0.00 | 0.00 | 0.00 | 43 | 1022.4 |
| 20260502044624 | 47 | 32 | 0.9 | 3.5 | 0.00 | 0.00 | 0.00 | 43 | 1022.4 |
| 20260502043613 | 48 | 360 | 2.6 | 3.5 | 0.00 | 0.00 | 0.00 | 45 | 1022.4 |
| 20260502042640 | 49 | 57 | 0.9 | 2.6 | 0.00 | 0.00 | 0.00 | 40 | 1022.3 |
| 20260502041651 | 48 | 48 | 1.7 | 2.6 | 0.00 | 0.00 | 0.00 | 43 | 1022.4 |
| 20260502040618 | 48 | 22 | 0.9 | 1.7 | 0.00 | 0.00 | 0.00 | 45 | 1022.3 |
| 20260502035617 | 48 | 24 | 0.0 | 2.6 | 0.00 | 0.00 | 0.00 | 45 | 1022.2 |
| 20260502034625 | 49 | 37 | 0.9 | 2.6 | 0.00 | 0.00 | 0.00 | 45 | 1022.1 |
| 20260502033621 | 49 | 23 | 1.7 | 2.6 | 0.00 | 0.00 | 0.00 | 43 | 1022.1 |
| 20260502032613 | 50 | 26 | 1.7 | 3.5 | 0.00 | 0.00 | 0.00 | 41 | 1021.8 |
| 20260502031623 | 51 | 26 | 1.7 | 2.6 | 0.00 | 0.00 | 0.00 | 41 | 1021.7 |
| 20260502030612 | 51 | 20 | 1.7 | 3.5 | 0.00 | 0.00 | 0.00 | 38 | 1021.6 |
| 20260502025617 | 52 | 29 | 1.7 | 3.5 | 0.00 | 0.00 | 0.00 | 40 | 1021.4 |
| 20260502024624 | 52 | 16 | 2.6 | 4.3 | 0.00 | 0.00 | 0.00 | 39 | 1021.3 |
| 20260502023612 | 53 | 30 | 1.7 | 3.5 | 0.00 | 0.00 | 0.00 | 37 | 1021.3 |
| 20260502022621 | 54 | 27 | 2.6 | 3.5 | 0.00 | 0.00 | 0.00 | 39 | 1021.2 |
| 20260502021614 | 55 | 46 | 1.7 | 2.6 | 0.00 | 0.00 | 0.00 | 35 | 1021.2 |
| 20260502020647 | 56 | 10 | 1.7 | 2.6 | 0.00 | 0.00 | 0.00 | 35 | 1021.1 |
| 20260502015625 | 56 | 333 | 1.7 | 7.0 | 0.00 | 0.00 | 0.00 | 34 | 1021.1 |
| 20260502014613 | 57 | 340 | 3.5 | 7.8 | 0.00 | 0.00 | 0.00 | 32 | 1021.0 |
| 20260502013624 | 57 | 360 | 4.3 | 7.8 | 0.00 | 0.00 | 0.00 | 30 | 1021.0 |
| 20260502012632 | 57 | 327 | 4.3 | 9.6 | 0.00 | 0.00 | 0.00 | 31 | 1021.0 |
| 20260502011619 | 58 | 331 | 4.3 | 7.8 | 0.00 | 0.00 | 0.00 | 30 | 1021.0 |
| 20260502010640 | 58 | 338 | 4.3 | 9.6 | 0.00 | 0.00 | 0.00 | 28 | 1021.1 |
| 20260502005621 | 58 | 322 | 2.6 | 8.7 | 0.00 | 0.00 | 0.00 | 29 | 1021.1 |
| 20260502004615 | 59 | 53 | 3.5 | 7.0 | 0.00 | 0.00 | 0.00 | 29 | 1021.0 |
| 20260502003623 | 59 | 20 | 5.2 | 9.6 | 0.00 | 0.00 | 0.00 | 28 | 1021.0 |
| 20260502002613 | 60 | 327 | 5.2 | 12.2 | 0.00 | 0.00 | 0.00 | 28 | 1021.0 |
| 20260502001643 | 60 | 17 | 6.1 | 10.4 | 0.00 | 0.00 | 0.00 | 29 | 1021.1 |
| 20260502000616 | 60 | 360 | 6.1 | 12.2 | 0.00 | 0.00 | 0.00 | 28 | 1021.2 |
| 20260501235617 | 60 | 355 | 7.8 | 13.0 | 0.00 | 0.00 | 0.00 | 28 | 1021.1 |
| 20260501234646 | 60 | 51 | 5.2 | 11.3 | 0.00 | 0.00 | 0.00 | 28 | 1021.1 |
| 20260501233612 | 60 | 43 | 7.8 | 11.3 | 0.00 | 0.00 | 0.00 | 27 | 1021.1 |
| 20260501232625 | 60 | 342 | 5.2 | 10.4 | 0.00 | 0.00 | 0.00 | 29 | 1021.1 |
| 20260501231615 | 60 | 5 | 5.2 | 10.4 | 0.00 | 0.00 | 0.00 | 29 | 1021.1 |
| 20260501230623 | 60 | 326 | 4.3 | 9.6 | 0.00 | 0.00 | 0.00 | 28 | 1021.1 |
| 20260501225624 | 60 | 20 | 5.2 | 9.6 | 0.00 | 0.00 | 0.00 | 29 | 1021.2 |
| 20260501224615 | 60 | 334 | 3.5 | 11.3 | 0.00 | 0.00 | 0.00 | 28 | 1021.3 |
| 20260501223644 | 60 | 331 | 5.2 | 10.4 | 0.00 | 0.00 | 0.00 | 29 | 1021.4 |
| 20260501222630 | 59 | 343 | 6.1 | 12.2 | 0.00 | 0.00 | 0.00 | 32 | 1021.6 |
| 20260501221619 | 59 | 339 | 5.2 | 11.3 | 0.00 | 0.00 | 0.00 | 30 | 1021.7 |
| 20260501220630 | 59 | 310 | 4.3 | 9.6 | 0.00 | 0.00 | 0.00 | 30 | 1021.7 |
| 20260501215649 | 59 | 36 | 5.2 | 13.0 | 0.00 | 0.00 | 0.00 | 28 | 1021.8 |
| 20260501214638 | 59 | 349 | 4.3 | 13.9 | 0.00 | 0.00 | 0.00 | 29 | 1021.9 |
| 20260501213628 | 58 | 344 | 7.8 | 12.2 | 0.00 | 0.00 | 0.00 | 28 | 1022.0 |
| 20260501212618 | 59 | 5 | 6.1 | 12.2 | 0.00 | 0.00 | 0.00 | 30 | 1022.0 |
| 20260501211613 | 58 | 24 | 7.8 | 12.2 | 0.00 | 0.00 | 0.00 | 28 | 1022.2 |
| 20260501210624 | 58 | 15 | 4.3 | 10.4 | 0.00 | 0.00 | 0.00 | 29 | 1022.2 |
| 20260501205645 | 58 | 330 | 6.1 | 13.0 | 0.00 | 0.00 | 0.00 | 26 | 1022.2 |
| 20260501204612 | 57 | 321 | 6.1 | 13.9 | 0.00 | 0.00 | 0.00 | 31 | 1022.3 |
| 20260501203645 | 58 | 333 | 6.1 | 15.6 | 0.00 | 0.00 | 0.00 | 26 | 1022.2 |
| 20260501202613 | 57 | 5 | 6.1 | 12.2 | 0.00 | 0.00 | 0.00 | 26 | 1022.2 |
| 20260501201622 | 57 | 49 | 3.5 | 8.7 | 0.00 | 0.00 | 0.00 | 27 | 1022.3 |
| 20260501200620 | 57 | 219 | 3.5 | 9.6 | 0.00 | 0.00 | 0.00 | 28 | 1022.3 |
| 20260501195624 | 56 | 315 | 3.5 | 12.2 | 0.00 | 0.00 | 0.00 | 30 | 1022.5 |
| 20260501194635 | 55 | 342 | 5.2 | 14.8 | 0.00 | 0.00 | 0.00 | 33 | 1022.4 |
| 20260501193644 | 55 | 5 | 2.6 | 10.4 | 0.00 | 0.00 | 0.00 | 33 | 1022.4 |
| 20260501192631 | 55 | 276 | 3.5 | 13.0 | 0.00 | 0.00 | 0.00 | 31 | 1022.5 |
| 20260501191623 | 55 | 302 | 7.8 | 14.8 | 0.00 | 0.00 | 0.00 | 31 | 1022.6 |
| 20260501190623 | 55 | 40 | 7.8 | 11.3 | 0.00 | 0.00 | 0.00 | 34 | 1022.6 |
| 20260501185623 | 55 | 322 | 2.6 | 7.0 | 0.00 | 0.00 | 0.00 | 35 | 1022.7 |
| 20260501184628 | 55 | 323 | 3.5 | 8.7 | 0.00 | 0.00 | 0.00 | 31 | 1022.7 |
| 20260501183617 | 54 | 240 | 2.6 | 8.7 | 0.00 | 0.00 | 0.00 | 29 | 1022.9 |
| 20260501182630 | 53 | 17 | 5.2 | 9.6 | 0.00 | 0.00 | 0.00 | 29 | 1023.0 |
| 20260501181638 | 52 | 194 | 2.6 | 8.7 | 0.00 | 0.00 | 0.00 | 33 | 1023.0 |
| 20260501180612 | 52 | 241 | 2.6 | 11.3 | 0.00 | 0.00 | 0.00 | 35 | 1023.0 |
| 20260501175612 | 52 | 327 | 6.1 | 12.2 | 0.00 | 0.00 | 0.00 | 35 | 1022.9 |
| 20260501174620 | 53 | 302 | 6.1 | 9.6 | 0.00 | 0.00 | 0.00 | 34 | 1022.9 |
| 20260501173633 | 53 | 196 | 2.6 | 10.4 | 0.00 | 0.00 | 0.00 | 34 | 1023.0 |
| 20260501172620 | 52 | 336 | 4.3 | 12.2 | 0.00 | 0.00 | 0.00 | 36 | 1023.0 |